sensor_id;sensor_type;location;lat;lon;timestamp;P1;durP1;ratioP1;P2;durP2;ratioP2
11675;SDS011;5894;42.768;23.404;2023-05-10T00:01:02;2.15;;;1.95;;
11675;SDS011;5894;42.768;23.404;2023-05-10T00:03:29;2.08;;;1.88;;
11675;SDS011;5894;42.768;23.404;2023-05-10T00:05:56;2.10;;;1.90;;
11675;SDS011;5894;42.768;23.404;2023-05-10T00:08:25;2.08;;;1.98;;
11675;SDS011;5894;42.768;23.404;2023-05-10T00:10:52;2.70;;;2.45;;
11675;SDS011;5894;42.768;23.404;2023-05-10T00:13:20;2.80;;;2.50;;
11675;SDS011;5894;42.768;23.404;2023-05-10T00:15:48;2.50;;;2.30;;
11675;SDS011;5894;42.768;23.404;2023-05-10T00:18:15;3.47;;;2.72;;
11675;SDS011;5894;42.768;23.404;2023-05-10T00:20:42;2.90;;;2.45;;
11675;SDS011;5894;42.768;23.404;2023-05-10T00:23:11;3.42;;;2.90;;
11675;SDS011;5894;42.768;23.404;2023-05-10T00:25:39;3.57;;;2.70;;
11675;SDS011;5894;42.768;23.404;2023-05-10T00:28:06;3.05;;;2.85;;
11675;SDS011;5894;42.768;23.404;2023-05-10T00:30:34;3.83;;;3.10;;
11675;SDS011;5894;42.768;23.404;2023-05-10T00:33:01;4.55;;;2.70;;
11675;SDS011;5894;42.768;23.404;2023-05-10T00:35:28;3.63;;;2.85;;
11675;SDS011;5894;42.768;23.404;2023-05-10T00:37:55;3.28;;;2.70;;
11675;SDS011;5894;42.768;23.404;2023-05-10T00:40:22;4.05;;;3.10;;
11675;SDS011;5894;42.768;23.404;2023-05-10T00:42:55;6.80;;;3.13;;
11675;SDS011;5894;42.768;23.404;2023-05-10T00:45:22;3.80;;;3.08;;
11675;SDS011;5894;42.768;23.404;2023-05-10T00:47:50;4.43;;;3.03;;
11675;SDS011;5894;42.768;23.404;2023-05-10T00:50:20;3.55;;;3.15;;
11675;SDS011;5894;42.768;23.404;2023-05-10T00:52:47;4.45;;;3.15;;
11675;SDS011;5894;42.768;23.404;2023-05-10T00:55:16;3.63;;;3.33;;
11675;SDS011;5894;42.768;23.404;2023-05-10T00:57:43;3.65;;;3.30;;
11675;SDS011;5894;42.768;23.404;2023-05-10T01:00:13;3.65;;;3.03;;
11675;SDS011;5894;42.768;23.404;2023-05-10T01:02:43;3.27;;;2.97;;
11675;SDS011;5894;42.768;23.404;2023-05-10T01:05:11;3.45;;;3.15;;
11675;SDS011;5894;42.768;23.404;2023-05-10T01:07:38;3.83;;;3.05;;
11675;SDS011;5894;42.768;23.404;2023-05-10T01:10:06;3.55;;;3.20;;
11675;SDS011;5894;42.768;23.404;2023-05-10T01:12:35;3.38;;;2.80;;
11675;SDS011;5894;42.768;23.404;2023-05-10T01:15:05;3.28;;;2.97;;
11675;SDS011;5894;42.768;23.404;2023-05-10T01:17:37;3.40;;;3.10;;
11675;SDS011;5894;42.768;23.404;2023-05-10T01:20:07;3.35;;;2.90;;
11675;SDS011;5894;42.768;23.404;2023-05-10T01:22:44;4.47;;;3.42;;
11675;SDS011;5894;42.768;23.404;2023-05-10T01:25:51;3.40;;;3.10;;
11675;SDS011;5894;42.768;23.404;2023-05-10T01:28:50;4.00;;;3.30;;
11675;SDS011;5894;42.768;23.404;2023-05-10T01:31:57;4.03;;;3.33;;
11675;SDS011;5894;42.768;23.404;2023-05-10T01:34:35;4.07;;;3.67;;
11675;SDS011;5894;42.768;23.404;2023-05-10T01:37:10;3.93;;;3.57;;
11675;SDS011;5894;42.768;23.404;2023-05-10T01:39:43;4.20;;;3.70;;
11675;SDS011;5894;42.768;23.404;2023-05-10T01:42:15;4.13;;;3.73;;
11675;SDS011;5894;42.768;23.404;2023-05-10T01:44:49;4.20;;;3.80;;
11675;SDS011;5894;42.768;23.404;2023-05-10T01:47:27;4.80;;;4.30;;
11675;SDS011;5894;42.768;23.404;2023-05-10T01:50:02;4.57;;;4.17;;
11675;SDS011;5894;42.768;23.404;2023-05-10T01:52:34;5.07;;;4.57;;
11675;SDS011;5894;42.768;23.404;2023-05-10T01:55:05;4.57;;;4.17;;
11675;SDS011;5894;42.768;23.404;2023-05-10T01:57:36;5.13;;;4.70;;
11675;SDS011;5894;42.768;23.404;2023-05-10T02:00:06;5.10;;;4.60;;
11675;SDS011;5894;42.768;23.404;2023-05-10T02:02:44;6.90;;;5.33;;
11675;SDS011;5894;42.768;23.404;2023-05-10T02:05:14;5.83;;;5.27;;
11675;SDS011;5894;42.768;23.404;2023-05-10T02:07:42;6.00;;;5.40;;
11675;SDS011;5894;42.768;23.404;2023-05-10T02:10:10;5.73;;;5.23;;
11675;SDS011;5894;42.768;23.404;2023-05-10T02:12:41;7.10;;;5.80;;
11675;SDS011;5894;42.768;23.404;2023-05-10T02:15:10;7.03;;;5.77;;
11675;SDS011;5894;42.768;23.404;2023-05-10T02:17:39;6.40;;;5.70;;
11675;SDS011;5894;42.768;23.404;2023-05-10T02:20:10;6.33;;;5.73;;
11675;SDS011;5894;42.768;23.404;2023-05-10T02:22:39;6.40;;;5.90;;
11675;SDS011;5894;42.768;23.404;2023-05-10T02:25:08;6.60;;;6.00;;
11675;SDS011;5894;42.768;23.404;2023-05-10T02:27:37;6.43;;;5.83;;
11675;SDS011;5894;42.768;23.404;2023-05-10T02:30:07;9.87;;;8.87;;
11675;SDS011;5894;42.768;23.404;2023-05-10T02:32:36;8.03;;;6.87;;
11675;SDS011;5894;42.768;23.404;2023-05-10T02:35:04;9.33;;;7.83;;
11675;SDS011;5894;42.768;23.404;2023-05-10T02:37:35;8.13;;;7.37;;
11675;SDS011;5894;42.768;23.404;2023-05-10T02:40:04;6.97;;;6.27;;
11675;SDS011;5894;42.768;23.404;2023-05-10T02:42:33;6.63;;;6.03;;
11675;SDS011;5894;42.768;23.404;2023-05-10T02:45:05;6.77;;;6.07;;
11675;SDS011;5894;42.768;23.404;2023-05-10T02:47:37;7.90;;;5.20;;
11675;SDS011;5894;42.768;23.404;2023-05-10T02:50:05;6.27;;;5.07;;
11675;SDS011;5894;42.768;23.404;2023-05-10T02:52:38;5.20;;;4.70;;
11675;SDS011;5894;42.768;23.404;2023-05-10T02:55:09;6.17;;;5.03;;
11675;SDS011;5894;42.768;23.404;2023-05-10T02:57:41;5.30;;;4.80;;
11675;SDS011;5894;42.768;23.404;2023-05-10T03:00:12;4.77;;;4.27;;
11675;SDS011;5894;42.768;23.404;2023-05-10T03:02:40;6.23;;;4.63;;
11675;SDS011;5894;42.768;23.404;2023-05-10T03:05:08;5.67;;;4.80;;
11675;SDS011;5894;42.768;23.404;2023-05-10T03:07:35;6.77;;;4.33;;
11675;SDS011;5894;42.768;23.404;2023-05-10T03:10:04;6.00;;;4.20;;
11675;SDS011;5894;42.768;23.404;2023-05-10T03:12:40;5.50;;;4.37;;
11675;SDS011;5894;42.768;23.404;2023-05-10T03:15:19;4.57;;;3.70;;
11675;SDS011;5894;42.768;23.404;2023-05-10T03:18:01;4.97;;;3.93;;
11675;SDS011;5894;42.768;23.404;2023-05-10T03:20:32;7.90;;;4.40;;
11675;SDS011;5894;42.768;23.404;2023-05-10T03:23:04;4.67;;;3.90;;
11675;SDS011;5894;42.768;23.404;2023-05-10T03:25:39;5.83;;;3.77;;
11675;SDS011;5894;42.768;23.404;2023-05-10T03:28:09;4.33;;;3.90;;
11675;SDS011;5894;42.768;23.404;2023-05-10T03:30:38;4.43;;;3.53;;
11675;SDS011;5894;42.768;23.404;2023-05-10T03:33:06;3.87;;;3.37;;
11675;SDS011;5894;42.768;23.404;2023-05-10T03:35:37;4.90;;;3.60;;
11675;SDS011;5894;42.768;23.404;2023-05-10T03:38:05;4.03;;;3.60;;
11675;SDS011;5894;42.768;23.404;2023-05-10T03:40:32;4.43;;;3.57;;
11675;SDS011;5894;42.768;23.404;2023-05-10T03:43:00;4.70;;;3.73;;
11675;SDS011;5894;42.768;23.404;2023-05-10T03:45:27;7.80;;;4.03;;
11675;SDS011;5894;42.768;23.404;2023-05-10T03:47:54;9.53;;;4.10;;
11675;SDS011;5894;42.768;23.404;2023-05-10T03:50:22;4.90;;;3.50;;
11675;SDS011;5894;42.768;23.404;2023-05-10T03:52:49;4.83;;;3.80;;
11675;SDS011;5894;42.768;23.404;2023-05-10T03:55:16;4.63;;;4.00;;
11675;SDS011;5894;42.768;23.404;2023-05-10T03:57:43;6.00;;;3.87;;
11675;SDS011;5894;42.768;23.404;2023-05-10T04:00:12;4.23;;;3.73;;
11675;SDS011;5894;42.768;23.404;2023-05-10T04:02:40;4.70;;;3.97;;
11675;SDS011;5894;42.768;23.404;2023-05-10T04:05:11;5.70;;;4.00;;
11675;SDS011;5894;42.768;23.404;2023-05-10T04:07:39;4.27;;;3.80;;
11675;SDS011;5894;42.768;23.404;2023-05-10T04:10:06;4.30;;;3.77;;
11675;SDS011;5894;42.768;23.404;2023-05-10T04:12:34;4.73;;;3.90;;
11675;SDS011;5894;42.768;23.404;2023-05-10T04:15:01;4.33;;;3.77;;
11675;SDS011;5894;42.768;23.404;2023-05-10T04:17:30;6.17;;;4.63;;
11675;SDS011;5894;42.768;23.404;2023-05-10T04:19:57;5.20;;;4.53;;
11675;SDS011;5894;42.768;23.404;2023-05-10T04:22:24;5.67;;;4.40;;
11675;SDS011;5894;42.768;23.404;2023-05-10T04:24:52;7.33;;;4.53;;
11675;SDS011;5894;42.768;23.404;2023-05-10T04:27:19;5.77;;;4.43;;
11675;SDS011;5894;42.768;23.404;2023-05-10T04:29:46;7.70;;;4.60;;
11675;SDS011;5894;42.768;23.404;2023-05-10T04:32:13;5.57;;;4.90;;
11675;SDS011;5894;42.768;23.404;2023-05-10T04:34:43;5.77;;;4.63;;
11675;SDS011;5894;42.768;23.404;2023-05-10T04:37:10;6.00;;;4.57;;
11675;SDS011;5894;42.768;23.404;2023-05-10T04:39:37;6.70;;;4.43;;
11675;SDS011;5894;42.768;23.404;2023-05-10T04:42:04;7.50;;;4.17;;
11675;SDS011;5894;42.768;23.404;2023-05-10T04:44:32;4.77;;;4.27;;
11675;SDS011;5894;42.768;23.404;2023-05-10T04:46:59;5.10;;;4.17;;
11675;SDS011;5894;42.768;23.404;2023-05-10T04:49:27;5.17;;;4.43;;
11675;SDS011;5894;42.768;23.404;2023-05-10T04:51:56;4.87;;;4.00;;
11675;SDS011;5894;42.768;23.404;2023-05-10T04:54:23;5.30;;;4.30;;
11675;SDS011;5894;42.768;23.404;2023-05-10T04:56:50;6.37;;;4.30;;
11675;SDS011;5894;42.768;23.404;2023-05-10T04:59:17;6.20;;;4.40;;
11675;SDS011;5894;42.768;23.404;2023-05-10T05:01:44;5.40;;;4.57;;
11675;SDS011;5894;42.768;23.404;2023-05-10T05:04:12;8.87;;;5.07;;
11675;SDS011;5894;42.768;23.404;2023-05-10T05:06:39;7.83;;;4.60;;
11675;SDS011;5894;42.768;23.404;2023-05-10T05:09:08;8.27;;;4.60;;
11675;SDS011;5894;42.768;23.404;2023-05-10T05:11:35;5.80;;;4.30;;
11675;SDS011;5894;42.768;23.404;2023-05-10T05:14:02;4.90;;;4.37;;
11675;SDS011;5894;42.768;23.404;2023-05-10T05:16:30;5.37;;;4.43;;
11675;SDS011;5894;42.768;23.404;2023-05-10T05:18:57;3.93;;;3.60;;
11675;SDS011;5894;42.768;23.404;2023-05-10T05:21:24;4.93;;;4.00;;
11675;SDS011;5894;42.768;23.404;2023-05-10T05:23:52;4.50;;;3.80;;
11675;SDS011;5894;42.768;23.404;2023-05-10T05:26:20;4.10;;;3.70;;
11675;SDS011;5894;42.768;23.404;2023-05-10T05:28:47;4.47;;;3.77;;
11675;SDS011;5894;42.768;23.404;2023-05-10T05:31:17;8.20;;;4.03;;
11675;SDS011;5894;42.768;23.404;2023-05-10T05:33:44;9.23;;;5.57;;
11675;SDS011;5894;42.768;23.404;2023-05-10T05:36:11;8.97;;;5.00;;
11675;SDS011;5894;42.768;23.404;2023-05-10T05:38:40;5.50;;;4.27;;
11675;SDS011;5894;42.768;23.404;2023-05-10T05:41:07;4.63;;;3.50;;
11675;SDS011;5894;42.768;23.404;2023-05-10T05:43:36;4.60;;;3.97;;
11675;SDS011;5894;42.768;23.404;2023-05-10T05:46:03;5.27;;;3.70;;
11675;SDS011;5894;42.768;23.404;2023-05-10T05:48:30;4.97;;;3.80;;
11675;SDS011;5894;42.768;23.404;2023-05-10T05:50:57;6.13;;;4.03;;
11675;SDS011;5894;42.768;23.404;2023-05-10T05:53:24;4.40;;;3.90;;
11675;SDS011;5894;42.768;23.404;2023-05-10T05:55:52;4.20;;;3.73;;
11675;SDS011;5894;42.768;23.404;2023-05-10T05:58:20;6.03;;;4.30;;
11675;SDS011;5894;42.768;23.404;2023-05-10T06:00:49;4.30;;;3.40;;
11675;SDS011;5894;42.768;23.404;2023-05-10T06:03:17;6.77;;;3.93;;
11675;SDS011;5894;42.768;23.404;2023-05-10T06:05:44;4.83;;;4.10;;
11675;SDS011;5894;42.768;23.404;2023-05-10T06:08:11;4.90;;;4.07;;
11675;SDS011;5894;42.768;23.404;2023-05-10T06:10:38;5.93;;;3.33;;
11675;SDS011;5894;42.768;23.404;2023-05-10T06:13:05;3.97;;;3.40;;
11675;SDS011;5894;42.768;23.404;2023-05-10T06:15:32;6.53;;;3.60;;
11675;SDS011;5894;42.768;23.404;2023-05-10T06:18:01;6.60;;;3.90;;
11675;SDS011;5894;42.768;23.404;2023-05-10T06:20:28;7.93;;;3.70;;
11675;SDS011;5894;42.768;23.404;2023-05-10T06:22:56;8.93;;;4.90;;
11675;SDS011;5894;42.768;23.404;2023-05-10T06:25:24;10.23;;;5.00;;
11675;SDS011;5894;42.768;23.404;2023-05-10T06:27:51;7.73;;;4.60;;
11675;SDS011;5894;42.768;23.404;2023-05-10T06:30:22;5.90;;;4.40;;
11675;SDS011;5894;42.768;23.404;2023-05-10T06:32:52;4.90;;;3.87;;
11675;SDS011;5894;42.768;23.404;2023-05-10T06:35:21;7.17;;;4.60;;
11675;SDS011;5894;42.768;23.404;2023-05-10T06:37:48;7.23;;;5.10;;
11675;SDS011;5894;42.768;23.404;2023-05-10T06:40:16;8.23;;;5.20;;
11675;SDS011;5894;42.768;23.404;2023-05-10T06:42:43;9.87;;;5.90;;
11675;SDS011;5894;42.768;23.404;2023-05-10T06:45:11;10.10;;;5.27;;
11675;SDS011;5894;42.768;23.404;2023-05-10T06:47:40;11.00;;;6.17;;
11675;SDS011;5894;42.768;23.404;2023-05-10T06:50:08;8.20;;;5.57;;
11675;SDS011;5894;42.768;23.404;2023-05-10T06:52:40;6.23;;;4.90;;
11675;SDS011;5894;42.768;23.404;2023-05-10T06:55:08;7.23;;;4.70;;
11675;SDS011;5894;42.768;23.404;2023-05-10T06:57:35;6.23;;;4.70;;
11675;SDS011;5894;42.768;23.404;2023-05-10T07:00:02;6.23;;;4.37;;
11675;SDS011;5894;42.768;23.404;2023-05-10T07:02:30;6.93;;;4.30;;
11675;SDS011;5894;42.768;23.404;2023-05-10T07:04:57;5.60;;;4.30;;
11675;SDS011;5894;42.768;23.404;2023-05-10T07:07:24;7.13;;;4.87;;
11675;SDS011;5894;42.768;23.404;2023-05-10T07:09:53;8.07;;;5.53;;
11675;SDS011;5894;42.768;23.404;2023-05-10T07:12:21;7.43;;;4.90;;
11675;SDS011;5894;42.768;23.404;2023-05-10T07:14:49;6.60;;;4.83;;
11675;SDS011;5894;42.768;23.404;2023-05-10T07:17:16;9.10;;;4.77;;
11675;SDS011;5894;42.768;23.404;2023-05-10T07:19:43;5.83;;;4.50;;
11675;SDS011;5894;42.768;23.404;2023-05-10T07:22:10;6.10;;;4.53;;
11675;SDS011;5894;42.768;23.404;2023-05-10T07:24:37;5.93;;;4.17;;
11675;SDS011;5894;42.768;23.404;2023-05-10T07:27:05;6.13;;;4.13;;
11675;SDS011;5894;42.768;23.404;2023-05-10T07:29:33;7.03;;;4.47;;
11675;SDS011;5894;42.768;23.404;2023-05-10T07:32:00;6.77;;;4.30;;
11675;SDS011;5894;42.768;23.404;2023-05-10T07:34:27;6.10;;;4.17;;
11675;SDS011;5894;42.768;23.404;2023-05-10T07:36:56;7.40;;;5.33;;
11675;SDS011;5894;42.768;23.404;2023-05-10T07:39:24;7.17;;;5.03;;
11675;SDS011;5894;42.768;23.404;2023-05-10T07:41:52;6.27;;;4.50;;
11675;SDS011;5894;42.768;23.404;2023-05-10T07:44:20;4.63;;;3.80;;
11675;SDS011;5894;42.768;23.404;2023-05-10T07:46:47;5.93;;;3.93;;
11675;SDS011;5894;42.768;23.404;2023-05-10T07:49:14;4.53;;;3.90;;
11675;SDS011;5894;42.768;23.404;2023-05-10T07:51:41;6.90;;;4.00;;
11675;SDS011;5894;42.768;23.404;2023-05-10T07:54:08;5.57;;;4.10;;
11675;SDS011;5894;42.768;23.404;2023-05-10T07:56:35;4.70;;;4.07;;
11675;SDS011;5894;42.768;23.404;2023-05-10T07:59:03;4.23;;;3.73;;
11675;SDS011;5894;42.768;23.404;2023-05-10T08:01:34;6.10;;;4.20;;
11675;SDS011;5894;42.768;23.404;2023-05-10T08:04:01;6.50;;;4.53;;
11675;SDS011;5894;42.768;23.404;2023-05-10T08:06:28;6.43;;;3.93;;
11675;SDS011;5894;42.768;23.404;2023-05-10T08:08:55;6.67;;;4.33;;
11675;SDS011;5894;42.768;23.404;2023-05-10T08:11:23;5.70;;;4.77;;
11675;SDS011;5894;42.768;23.404;2023-05-10T08:13:50;6.07;;;4.40;;
11675;SDS011;5894;42.768;23.404;2023-05-10T08:16:18;11.40;;;7.37;;
11675;SDS011;5894;42.768;23.404;2023-05-10T08:18:46;20.10;;;12.50;;
11675;SDS011;5894;42.768;23.404;2023-05-10T08:21:14;24.23;;;14.33;;
11675;SDS011;5894;42.768;23.404;2023-05-10T08:23:41;20.57;;;14.97;;
11675;SDS011;5894;42.768;23.404;2023-05-10T08:26:09;9.73;;;6.00;;
11675;SDS011;5894;42.768;23.404;2023-05-10T08:28:36;8.87;;;5.07;;
11675;SDS011;5894;42.768;23.404;2023-05-10T08:31:04;6.93;;;5.18;;
11675;SDS011;5894;42.768;23.404;2023-05-10T08:33:32;9.23;;;5.23;;
11675;SDS011;5894;42.768;23.404;2023-05-10T08:36:00;8.27;;;6.07;;
11675;SDS011;5894;42.768;23.404;2023-05-10T08:38:27;10.63;;;6.53;;
11675;SDS011;5894;42.768;23.404;2023-05-10T08:40:55;16.63;;;8.25;;
11675;SDS011;5894;42.768;23.404;2023-05-10T08:43:25;10.17;;;7.23;;
11675;SDS011;5894;42.768;23.404;2023-05-10T08:45:53;6.32;;;5.32;;
11675;SDS011;5894;42.768;23.404;2023-05-10T08:48:22;7.70;;;5.63;;
11675;SDS011;5894;42.768;23.404;2023-05-10T08:50:51;7.28;;;5.57;;
11675;SDS011;5894;42.768;23.404;2023-05-10T08:53:22;6.35;;;5.43;;
11675;SDS011;5894;42.768;23.404;2023-05-10T08:55:51;9.10;;;5.47;;
11675;SDS011;5894;42.768;23.404;2023-05-10T08:58:19;7.65;;;5.63;;
11675;SDS011;5894;42.768;23.404;2023-05-10T09:00:48;6.78;;;4.65;;
11675;SDS011;5894;42.768;23.404;2023-05-10T09:03:16;4.80;;;4.40;;
11675;SDS011;5894;42.768;23.404;2023-05-10T09:05:44;6.55;;;5.03;;
11675;SDS011;5894;42.768;23.404;2023-05-10T09:08:11;6.40;;;5.18;;
11675;SDS011;5894;42.768;23.404;2023-05-10T09:10:42;11.00;;;4.88;;
11675;SDS011;5894;42.768;23.404;2023-05-10T09:13:10;6.90;;;4.65;;
11675;SDS011;5894;42.768;23.404;2023-05-10T09:15:37;5.95;;;4.88;;
11675;SDS011;5894;42.768;23.404;2023-05-10T09:18:05;11.15;;;5.82;;
11675;SDS011;5894;42.768;23.404;2023-05-10T09:20:32;6.05;;;4.53;;
11675;SDS011;5894;42.768;23.404;2023-05-10T09:22:59;7.53;;;4.40;;
11675;SDS011;5894;42.768;23.404;2023-05-10T09:25:27;9.82;;;5.72;;
11675;SDS011;5894;42.768;23.404;2023-05-10T09:27:56;7.85;;;5.05;;
11675;SDS011;5894;42.768;23.404;2023-05-10T09:30:24;8.00;;;4.60;;
11675;SDS011;5894;42.768;23.404;2023-05-10T09:32:53;10.88;;;6.05;;
11675;SDS011;5894;42.768;23.404;2023-05-10T09:35:21;8.25;;;5.20;;
11675;SDS011;5894;42.768;23.404;2023-05-10T09:37:50;7.85;;;4.90;;
11675;SDS011;5894;42.768;23.404;2023-05-10T09:40:19;10.25;;;4.90;;
11675;SDS011;5894;42.768;23.404;2023-05-10T09:42:51;6.80;;;4.55;;
11675;SDS011;5894;42.768;23.404;2023-05-10T09:45:20;5.85;;;4.28;;
11675;SDS011;5894;42.768;23.404;2023-05-10T09:47:48;8.13;;;5.25;;
11675;SDS011;5894;42.768;23.404;2023-05-10T09:50:15;8.23;;;5.65;;
11675;SDS011;5894;42.768;23.404;2023-05-10T09:52:46;9.18;;;5.10;;
11675;SDS011;5894;42.768;23.404;2023-05-10T09:55:14;7.65;;;4.97;;
11675;SDS011;5894;42.768;23.404;2023-05-10T09:57:42;6.93;;;5.45;;
11675;SDS011;5894;42.768;23.404;2023-05-10T10:00:10;7.57;;;5.40;;
11675;SDS011;5894;42.768;23.404;2023-05-10T10:02:44;7.07;;;5.68;;
11675;SDS011;5894;42.768;23.404;2023-05-10T10:05:12;7.55;;;4.88;;
11675;SDS011;5894;42.768;23.404;2023-05-10T10:07:40;9.05;;;6.40;;
11675;SDS011;5894;42.768;23.404;2023-05-10T10:10:07;5.80;;;5.03;;
11675;SDS011;5894;42.768;23.404;2023-05-10T10:12:38;6.47;;;5.22;;
11675;SDS011;5894;42.768;23.404;2023-05-10T10:15:07;8.75;;;5.15;;
11675;SDS011;5894;42.768;23.404;2023-05-10T10:17:35;16.60;;;9.10;;
11675;SDS011;5894;42.768;23.404;2023-05-10T10:20:06;16.60;;;9.68;;
11675;SDS011;5894;42.768;23.404;2023-05-10T10:22:35;14.18;;;8.23;;
11675;SDS011;5894;42.768;23.404;2023-05-10T10:25:06;11.27;;;6.45;;
11675;SDS011;5894;42.768;23.404;2023-05-10T10:27:37;40.45;;;15.32;;
11675;SDS011;5894;42.768;23.404;2023-05-10T10:30:13;25.42;;;12.30;;
11675;SDS011;5894;42.768;23.404;2023-05-10T10:32:55;6.45;;;4.60;;
11675;SDS011;5894;42.768;23.404;2023-05-10T10:35:35;16.23;;;7.38;;
11675;SDS011;5894;42.768;23.404;2023-05-10T10:38:03;7.20;;;3.40;;
11675;SDS011;5894;42.768;23.404;2023-05-10T10:40:30;9.30;;;3.90;;
11675;SDS011;5894;42.768;23.404;2023-05-10T10:43:20;11.55;;;6.13;;
11675;SDS011;5894;42.768;23.404;2023-05-10T10:48:37;9.90;;;6.00;;
11675;SDS011;5894;42.768;23.404;2023-05-10T10:51:06;15.57;;;8.27;;
11675;SDS011;5894;42.768;23.404;2023-05-10T10:53:33;7.68;;;5.18;;
11675;SDS011;5894;42.768;23.404;2023-05-10T10:56:06;7.22;;;4.78;;
11675;SDS011;5894;42.768;23.404;2023-05-10T10:58:35;7.95;;;6.30;;
11675;SDS011;5894;42.768;23.404;2023-05-10T11:01:10;4.40;;;4.00;;
11675;SDS011;5894;42.768;23.404;2023-05-10T11:03:38;5.55;;;4.72;;
11675;SDS011;5894;42.768;23.404;2023-05-10T11:06:07;4.55;;;3.83;;
11675;SDS011;5894;42.768;23.404;2023-05-10T11:08:41;7.88;;;4.85;;
11675;SDS011;5894;42.768;23.404;2023-05-10T11:11:09;8.48;;;5.70;;
11675;SDS011;5894;42.768;23.404;2023-05-10T11:13:40;7.93;;;4.75;;
11675;SDS011;5894;42.768;23.404;2023-05-10T11:16:09;9.98;;;6.32;;
11675;SDS011;5894;42.768;23.404;2023-05-10T11:18:51;14.48;;;9.02;;
11675;SDS011;5894;42.768;23.404;2023-05-10T11:21:28;5.35;;;4.22;;
11675;SDS011;5894;42.768;23.404;2023-05-10T11:23:56;9.23;;;4.78;;
11675;SDS011;5894;42.768;23.404;2023-05-10T11:26:24;8.35;;;5.18;;
11675;SDS011;5894;42.768;23.404;2023-05-10T11:28:52;7.85;;;5.35;;
11675;SDS011;5894;42.768;23.404;2023-05-10T11:31:24;6.65;;;3.90;;
11675;SDS011;5894;42.768;23.404;2023-05-10T11:33:52;5.45;;;3.53;;
11675;SDS011;5894;42.768;23.404;2023-05-10T11:36:23;7.15;;;4.10;;
11675;SDS011;5894;42.768;23.404;2023-05-10T11:38:53;9.13;;;4.07;;
11675;SDS011;5894;42.768;23.404;2023-05-10T11:41:21;5.40;;;3.90;;
11675;SDS011;5894;42.768;23.404;2023-05-10T11:43:49;5.15;;;3.58;;
11675;SDS011;5894;42.768;23.404;2023-05-10T11:46:18;4.00;;;3.60;;
11675;SDS011;5894;42.768;23.404;2023-05-10T11:48:46;4.35;;;3.78;;
11675;SDS011;5894;42.768;23.404;2023-05-10T11:51:13;5.90;;;3.67;;
11675;SDS011;5894;42.768;23.404;2023-05-10T11:53:41;4.32;;;3.40;;
11675;SDS011;5894;42.768;23.404;2023-05-10T11:56:10;4.25;;;3.67;;
11675;SDS011;5894;42.768;23.404;2023-05-10T11:58:38;4.70;;;3.83;;
11675;SDS011;5894;42.768;23.404;2023-05-10T12:01:06;4.07;;;3.67;;
11675;SDS011;5894;42.768;23.404;2023-05-10T12:03:34;6.45;;;3.72;;
11675;SDS011;5894;42.768;23.404;2023-05-10T12:06:01;6.40;;;3.42;;
11675;SDS011;5894;42.768;23.404;2023-05-10T12:08:29;11.55;;;6.40;;
11675;SDS011;5894;42.768;23.404;2023-05-10T12:11:04;7.72;;;5.68;;
11675;SDS011;5894;42.768;23.404;2023-05-10T12:13:36;10.88;;;7.70;;
11675;SDS011;5894;42.768;23.404;2023-05-10T12:16:12;7.13;;;4.88;;
11675;SDS011;5894;42.768;23.404;2023-05-10T12:18:39;10.20;;;6.25;;
11675;SDS011;5894;42.768;23.404;2023-05-10T12:21:07;14.57;;;7.40;;
11675;SDS011;5894;42.768;23.404;2023-05-10T12:23:36;16.30;;;8.52;;
11675;SDS011;5894;42.768;23.404;2023-05-10T12:26:04;9.10;;;4.97;;
11675;SDS011;5894;42.768;23.404;2023-05-10T12:28:33;7.30;;;4.13;;
11675;SDS011;5894;42.768;23.404;2023-05-10T12:31:00;7.28;;;4.40;;
11675;SDS011;5894;42.768;23.404;2023-05-10T12:33:35;6.78;;;4.00;;
11675;SDS011;5894;42.768;23.404;2023-05-10T12:36:04;8.35;;;4.80;;
11675;SDS011;5894;42.768;23.404;2023-05-10T12:38:32;5.82;;;4.20;;
11675;SDS011;5894;42.768;23.404;2023-05-10T12:41:00;9.95;;;5.53;;
11675;SDS011;5894;42.768;23.404;2023-05-10T12:43:29;12.30;;;6.60;;
11675;SDS011;5894;42.768;23.404;2023-05-10T12:45:57;6.95;;;4.90;;
11675;SDS011;5894;42.768;23.404;2023-05-10T12:48:25;8.15;;;4.90;;
11675;SDS011;5894;42.768;23.404;2023-05-10T12:50:53;9.13;;;5.47;;
11675;SDS011;5894;42.768;23.404;2023-05-10T12:53:20;7.05;;;4.68;;
11675;SDS011;5894;42.768;23.404;2023-05-10T12:55:47;6.82;;;4.88;;
11675;SDS011;5894;42.768;23.404;2023-05-10T12:58:14;11.50;;;7.25;;
11675;SDS011;5894;42.768;23.404;2023-05-10T13:00:41;6.70;;;4.95;;
11675;SDS011;5894;42.768;23.404;2023-05-10T13:03:11;8.85;;;6.00;;
11675;SDS011;5894;42.768;23.404;2023-05-10T13:05:38;14.02;;;7.63;;
11675;SDS011;5894;42.768;23.404;2023-05-10T13:08:05;10.07;;;7.30;;
11675;SDS011;5894;42.768;23.404;2023-05-10T13:10:32;10.45;;;6.30;;
11675;SDS011;5894;42.768;23.404;2023-05-10T13:12:59;9.68;;;7.10;;
11675;SDS011;5894;42.768;23.404;2023-05-10T13:15:26;8.25;;;6.70;;
11675;SDS011;5894;42.768;23.404;2023-05-10T13:17:53;8.48;;;5.20;;
11675;SDS011;5894;42.768;23.404;2023-05-10T13:20:22;11.50;;;6.45;;
11675;SDS011;5894;42.768;23.404;2023-05-10T13:22:49;8.60;;;6.45;;
11675;SDS011;5894;42.768;23.404;2023-05-10T13:25:16;7.88;;;4.90;;
11675;SDS011;5894;42.768;23.404;2023-05-10T13:27:43;4.82;;;4.30;;
11675;SDS011;5894;42.768;23.404;2023-05-10T13:30:12;5.60;;;4.75;;
11675;SDS011;5894;42.768;23.404;2023-05-10T13:32:39;6.53;;;4.97;;
11675;SDS011;5894;42.768;23.404;2023-05-10T13:35:07;7.00;;;5.00;;
11675;SDS011;5894;42.768;23.404;2023-05-10T13:37:36;6.63;;;4.80;;
11675;SDS011;5894;42.768;23.404;2023-05-10T13:40:03;6.45;;;5.30;;
11675;SDS011;5894;42.768;23.404;2023-05-10T13:42:31;7.97;;;5.40;;
11675;SDS011;5894;42.768;23.404;2023-05-10T13:44:58;9.55;;;6.03;;
11675;SDS011;5894;42.768;23.404;2023-05-10T13:47:25;8.52;;;4.60;;
11675;SDS011;5894;42.768;23.404;2023-05-10T13:49:52;7.38;;;4.68;;
11675;SDS011;5894;42.768;23.404;2023-05-10T13:52:19;5.70;;;4.57;;
11675;SDS011;5894;42.768;23.404;2023-05-10T13:54:48;9.15;;;6.10;;
11675;SDS011;5894;42.768;23.404;2023-05-10T13:57:17;8.68;;;5.97;;
11675;SDS011;5894;42.768;23.404;2023-05-10T13:59:44;9.32;;;6.88;;
11675;SDS011;5894;42.768;23.404;2023-05-10T14:02:11;9.90;;;6.95;;
11675;SDS011;5894;42.768;23.404;2023-05-10T14:04:38;11.70;;;7.53;;
11675;SDS011;5894;42.768;23.404;2023-05-10T14:07:06;19.48;;;11.48;;
11675;SDS011;5894;42.768;23.404;2023-05-10T14:09:33;14.68;;;8.82;;
11675;SDS011;5894;42.768;23.404;2023-05-10T14:12:01;11.43;;;8.13;;
11675;SDS011;5894;42.768;23.404;2023-05-10T14:14:28;12.57;;;7.53;;
11675;SDS011;5894;42.768;23.404;2023-05-10T14:16:55;11.45;;;6.88;;
11675;SDS011;5894;42.768;23.404;2023-05-10T14:19:22;10.15;;;6.50;;
11675;SDS011;5894;42.768;23.404;2023-05-10T14:21:49;9.38;;;7.28;;
11675;SDS011;5894;42.768;23.404;2023-05-10T14:24:17;7.35;;;5.78;;
11675;SDS011;5894;42.768;23.404;2023-05-10T14:26:44;8.98;;;5.45;;
11675;SDS011;5894;42.768;23.404;2023-05-10T14:29:12;12.85;;;8.20;;
11675;SDS011;5894;42.768;23.404;2023-05-10T14:31:39;9.75;;;6.57;;
11675;SDS011;5894;42.768;23.404;2023-05-10T14:34:06;12.63;;;7.68;;
11675;SDS011;5894;42.768;23.404;2023-05-10T14:36:33;11.00;;;8.10;;
11675;SDS011;5894;42.768;23.404;2023-05-10T14:39:01;12.75;;;7.70;;
11675;SDS011;5894;42.768;23.404;2023-05-10T14:41:29;8.85;;;7.35;;
11675;SDS011;5894;42.768;23.404;2023-05-10T14:43:56;10.98;;;9.07;;
11675;SDS011;5894;42.768;23.404;2023-05-10T14:46:24;8.35;;;7.22;;
11675;SDS011;5894;42.768;23.404;2023-05-10T14:48:51;9.93;;;7.18;;
11675;SDS011;5894;42.768;23.404;2023-05-10T14:51:18;14.88;;;8.38;;
11675;SDS011;5894;42.768;23.404;2023-05-10T14:53:47;11.95;;;8.15;;
11675;SDS011;5894;42.768;23.404;2023-05-10T14:56:15;12.30;;;9.60;;
11675;SDS011;5894;42.768;23.404;2023-05-10T14:58:42;12.43;;;9.93;;